Time;durP1;ratioP1;P1;durP2;ratioP2;P2;SDS_P1;SDS_P2;PMS_P1;PMS_P2;Temp;Humidity;BMP_temperature;BMP_pressure;BME280_temperature;BME280_humidity;BME280_pressure;Samples;Min_cycle;Max_cycle;Signal;HPM_P1;HPM_P2
2023/05/04 00:02:03;;;;;;;10.10;5.30;;;;;;;14.88;58.23;101207.08;104586;1262;60396;-47
2023/05/04 00:04:30;;;;;;;9.00;5.40;;;;;;;14.83;58.38;101206.27;104535;1261;68898;-46
2023/05/04 00:06:57;;;;;;;7.00;4.80;;;;;;;14.79;58.48;101201.83;104521;1265;63884;-47
2023/05/04 00:09:25;;;;;;;8.40;5.10;;;;;;;14.80;58.50;101201.73;106098;1257;65883;-47
2023/05/04 00:11:51;;;;;;;7.70;5.00;;;;;;;14.85;58.55;101199.02;104422;1261;61644;-46
2023/05/04 00:14:18;;;;;;;7.50;4.60;;;;;;;14.88;58.51;101198.42;104439;1261;61903;-46
2023/05/04 00:16:45;;;;;;;9.30;5.20;;;;;;;14.87;58.49;101196.71;105099;1260;67458;-46
2023/05/04 00:19:12;;;;;;;7.60;4.90;;;;;;;14.86;58.58;101197.67;105110;1260;64298;-46
2023/05/04 00:21:39;;;;;;;8.70;5.40;;;;;;;14.84;58.66;101195.20;105054;1260;65281;-46
2023/05/04 00:24:06;;;;;;;8.00;5.50;;;;;;;14.82;58.74;101196.43;107565;1257;60490;-46
2023/05/04 00:26:33;;;;;;;7.60;5.00;;;;;;;14.82;58.76;101198.77;108752;1257;58475;-46
2023/05/04 00:29:00;;;;;;;9.40;4.90;;;;;;;14.81;58.78;101198.14;108747;1256;66168;-47
2023/05/04 00:31:27;;;;;;;8.80;5.10;;;;;;;14.85;58.72;101201.18;108743;1260;63761;-47
2023/05/04 00:33:54;;;;;;;7.20;4.60;;;;;;;14.89;58.76;101202.39;108729;1257;67399;-47
2023/05/04 00:36:21;;;;;;;7.80;4.80;;;;;;;14.92;58.78;101201.65;108736;1257;58371;-46
2023/05/04 00:38:53;;;;;;;8.00;5.40;;;;;;;14.92;58.75;101198.77;108710;1256;60820;-47
2023/05/04 00:41:20;;;;;;;9.10;5.30;;;;;;;14.92;58.74;101197.93;107155;1262;67325;-46
2023/05/04 00:43:47;;;;;;;8.40;5.20;;;;;;;14.91;58.60;101195.73;104472;1262;63578;-50
2023/05/04 00:46:14;;;;;;;10.90;5.20;;;;;;;14.88;58.67;101198.44;104526;1261;66059;-45
2023/05/04 00:48:41;;;;;;;8.40;5.50;;;;;;;14.85;58.97;101199.04;104312;1258;60660;-46
2023/05/04 00:51:10;;;;;;;10.30;5.40;;;;;;;14.82;59.13;101194.20;104525;1261;60384;-45
2023/05/04 00:53:36;;;;;;;7.00;4.80;;;;;;;14.82;59.04;101195.42;107821;1260;67298;-45
2023/05/04 00:56:05;;;;;;;7.50;4.50;;;;;;;14.82;59.06;101198.23;104519;1258;63792;-45
2023/05/04 00:58:32;;;;;;;7.80;5.80;;;;;;;14.79;59.13;101200.77;105125;1261;66179;-46
2023/05/04 01:00:59;;;;;;;8.40;5.40;;;;;;;14.77;59.23;101202.37;104616;1261;60488;-46
2023/05/04 01:03:26;;;;;;;8.60;5.50;;;;;;;14.76;59.36;101201.04;104591;1257;60403;-46
2023/05/04 01:06:25;;;;;;;8.40;5.10;;;;;;;14.73;59.48;101198.64;104427;1264;67613;-45
2023/05/04 01:09:15;;;;;;;9.60;5.00;;;;;;;14.68;59.54;101201.30;106256;1260;63693;-46
2023/05/04 01:12:05;;;;;;;7.80;4.90;;;;;;;14.63;59.80;101206.38;106530;1260;67133;-47
2023/05/04 01:14:33;;;;;;;12.10;5.50;;;;;;;14.62;59.91;101210.83;104561;1265;60477;-46
2023/05/04 01:17:05;;;;;;;8.10;5.10;;;;;;;14.64;60.00;101213.20;104500;1257;60507;-45
2023/05/04 01:19:32;;;;;;;8.20;5.30;;;;;;;14.64;60.08;101213.33;104652;1257;66169;-46
2023/05/04 01:22:01;;;;;;;7.70;5.00;;;;;;;14.63;60.18;101210.59;105197;1257;62948;-47
2023/05/04 01:24:28;;;;;;;9.70;6.00;;;;;;;14.58;60.24;101207.08;104608;1260;66287;-47
2023/05/04 01:27:02;;;;;;;7.20;5.30;;;;;;;14.52;60.34;101198.05;106150;1257;60414;-46
2023/05/04 01:29:41;;;;;;;8.40;5.30;;;;;;;14.46;60.51;101191.69;106879;1261;59215;-46
2023/05/04 01:32:09;;;;;;;8.00;5.50;;;;;;;14.40;60.60;101193.80;104690;1261;67286;-46
2023/05/04 01:34:36;;;;;;;7.90;4.90;;;;;;;14.40;60.72;101204.56;105755;1262;63587;-46
2023/05/04 01:37:03;;;;;;;8.60;5.50;;;;;;;14.44;60.68;101205.60;104914;1261;65881;-46
2023/05/04 01:39:30;;;;;;;9.00;5.50;;;;;;;14.45;60.69;101200.77;104972;1256;60511;-46
2023/05/04 01:41:57;;;;;;;7.20;5.50;;;;;;;14.42;60.88;101204.23;104705;1257;60468;-47
2023/05/04 01:44:25;;;;;;;7.80;4.80;;;;;;;14.37;61.04;101205.66;104642;1260;66370;-47
2023/05/04 01:46:52;;;;;;;9.20;5.80;;;;;;;14.35;61.03;101201.77;104580;1259;65014;-47
2023/05/04 01:49:18;;;;;;;8.80;6.20;;;;;;;14.30;61.03;101199.17;104615;1257;67017;-46
2023/05/04 01:51:48;;;;;;;8.50;5.30;;;;;;;14.22;61.24;101204.39;105887;1256;60347;-46
2023/05/04 01:54:15;;;;;;;7.20;4.80;;;;;;;14.22;61.28;101203.95;108846;1257;58130;-47
2023/05/04 01:56:42;;;;;;;9.30;5.40;;;;;;;14.24;61.50;101198.64;104899;1260;66311;-46
2023/05/04 01:59:08;;;;;;;9.10;5.80;;;;;;;14.26;61.57;101196.34;104937;1257;63812;-46
2023/05/04 02:01:35;;;;;;;7.80;4.90;;;;;;;14.25;61.70;101195.55;104720;1257;65349;-46
2023/05/04 02:04:02;;;;;;;8.00;5.60;;;;;;;14.20;61.74;101191.70;104523;1261;60452;-46
2023/05/04 02:06:29;;;;;;;8.10;5.30;;;;;;;14.11;61.92;101192.23;108798;1256;58832;-47
2023/05/04 02:08:56;;;;;;;7.90;4.80;;;;;;;13.97;62.27;101191.45;105273;1260;67280;-46
2023/05/04 02:11:23;;;;;;;8.70;4.90;;;;;;;13.89;62.61;101183.46;104589;1254;65802;-47
2023/05/04 02:13:51;;;;;;;7.30;5.40;;;;;;;13.85;62.80;101181.50;105313;1260;66175;-47
2023/05/04 02:16:18;;;;;;;9.20;5.00;;;;;;;13.82;63.07;101186.89;104766;1260;60561;-47
2023/05/04 02:18:45;;;;;;;7.30;5.10;;;;;;;13.74;63.24;101185.02;104567;1258;60437;-47
2023/05/04 02:21:14;;;;;;;7.80;5.30;;;;;;;13.68;63.44;101186.73;104508;1258;68240;-48
2023/05/04 02:23:42;;;;;;;7.40;4.50;;;;;;;13.62;63.53;101190.93;105030;1260;62784;-48
2023/05/04 02:26:10;;;;;;;6.10;4.50;;;;;;;13.61;63.50;101194.95;106017;1263;66343;-49
2023/05/04 02:28:36;;;;;;;10.00;5.40;;;;;;;13.64;63.60;101196.27;108679;1257;58574;-49
2023/05/04 02:31:03;;;;;;;8.40;5.10;;;;;;;13.65;63.54;101193.88;108769;1257;59220;-49
2023/05/04 02:33:30;;;;;;;10.60;5.10;;;;;;;13.62;63.69;101188.86;108804;1258;67111;-49
2023/05/04 02:35:57;;;;;;;9.10;5.20;;;;;;;13.57;63.76;101189.20;108718;1257;63112;-49
2023/05/04 02:38:25;;;;;;;8.60;5.10;;;;;;;13.54;63.92;101190.63;108727;1257;66385;-49
2023/05/04 02:40:52;;;;;;;7.40;5.00;;;;;;;13.58;63.88;101196.03;108653;1256;58738;-48
2023/05/04 02:43:19;;;;;;;6.90;4.70;;;;;;;13.62;63.69;101201.17;108642;1257;58352;-49
2023/05/04 02:45:46;;;;;;;7.10;4.70;;;;;;;13.66;63.78;101207.17;108799;1256;67589;-49
2023/05/04 02:48:13;;;;;;;8.10;5.00;;;;;;;13.70;63.72;101204.04;108690;1257;62822;-49
2023/05/04 02:50:40;;;;;;;8.70;5.10;;;;;;;13.71;63.42;101195.52;108736;1257;68171;-49
2023/05/04 02:53:07;;;;;;;8.50;5.60;;;;;;;13.68;63.49;101192.63;108672;1258;58307;-48
2023/05/04 02:55:34;;;;;;;7.30;4.90;;;;;;;13.63;63.52;101185.95;108699;1257;58883;-48
2023/05/04 02:58:00;;;;;;;7.60;4.50;;;;;;;13.62;63.61;101178.77;107740;1260;67304;-48
2023/05/04 03:00:27;;;;;;;8.60;4.60;;;;;;;13.61;63.68;101173.91;105077;1257;63775;-48
2023/05/04 03:02:54;;;;;;;7.80;4.60;;;;;;;13.57;63.84;101177.40;104763;1262;66420;-48
2023/05/04 03:05:21;;;;;;;11.50;4.90;;;;;;;13.54;63.94;101180.29;104492;1256;60655;-46
2023/05/04 03:07:49;;;;;;;9.40;5.20;;;;;;;13.51;64.06;101179.48;104571;1254;60623;-47
2023/05/04 03:10:16;;;;;;;8.50;5.00;;;;;;;13.47;64.14;101179.62;104492;1257;66298;-46
2023/05/04 03:12:43;;;;;;;7.70;5.20;;;;;;;13.47;64.16;101188.44;104615;1258;63982;-46
2023/05/04 03:15:11;;;;;;;6.80;4.40;;;;;;;13.50;64.19;101196.08;104865;1260;66565;-46
2023/05/04 03:17:38;;;;;;;7.70;4.90;;;;;;;13.54;64.16;101190.52;104560;1257;60436;-47
2023/05/04 03:20:06;;;;;;;9.20;5.20;;;;;;;13.55;64.09;101185.29;104576;1260;60470;-52
2023/05/04 03:22:34;;;;;;;8.80;5.40;;;;;;;13.55;64.02;101188.88;105058;1260;67375;-46
2023/05/04 03:25:01;;;;;;;6.90;5.30;;;;;;;13.53;64.09;101189.70;108686;1257;63810;-46
2023/05/04 03:27:28;;;;;;;8.70;5.20;;;;;;;13.51;64.05;101187.89;105990;1257;65136;-46
2023/05/04 03:29:56;;;;;;;8.40;5.20;;;;;;;13.51;64.08;101179.42;104487;1261;60358;-50
2023/05/04 03:32:23;;;;;;;9.80;5.30;;;;;;;13.49;64.09;101178.56;104556;1260;60445;-46
2023/05/04 03:34:50;;;;;;;7.30;4.80;;;;;;;13.45;64.21;101182.91;104297;1264;65924;-46
2023/05/04 03:37:17;;;;;;;8.60;5.40;;;;;;;13.44;64.28;101181.43;104570;1257;63867;-45
2023/05/04 03:39:44;;;;;;;7.90;5.70;;;;;;;13.40;64.42;101176.13;104591;1257;65998;-46
2023/05/04 03:42:11;;;;;;;7.90;5.10;;;;;;;13.33;64.48;101180.55;104580;1260;60596;-46
2023/05/04 03:44:40;;;;;;;7.10;4.90;;;;;;;13.32;64.63;101180.79;108677;1256;58917;-47
2023/05/04 03:47:06;;;;;;;7.40;4.80;;;;;;;13.32;64.60;101182.22;107619;1257;69720;-46
2023/05/04 03:49:33;;;;;;;7.80;5.80;;;;;;;13.29;64.66;101183.33;104822;1258;63739;-46
2023/05/04 03:52:00;;;;;;;7.00;5.30;;;;;;;13.23;64.79;101181.31;105154;1260;66186;-47
2023/05/04 03:54:27;;;;;;;7.60;5.40;;;;;;;13.18;64.91;101183.13;108721;1258;58262;-46
2023/05/04 03:56:54;;;;;;;7.30;5.00;;;;;;;13.18;65.06;101189.58;108828;1256;58313;-47
2023/05/04 03:59:21;;;;;;;8.50;5.10;;;;;;;13.27;64.97;101200.34;105763;1255;66256;-46
2023/05/04 04:01:49;;;;;;;9.30;5.50;;;;;;;13.37;64.76;101200.44;105059;1257;63684;-46
2023/05/04 04:04:16;;;;;;;9.50;5.70;;;;;;;13.45;64.69;101198.95;105002;1257;65991;-45
2023/05/04 04:06:43;;;;;;;9.30;5.50;;;;;;;13.54;64.57;101197.73;106047;1258;60630;-46
2023/05/04 04:09:11;;;;;;;7.60;5.60;;;;;;;13.64;64.38;101197.84;108711;1256;58489;-47
2023/05/04 04:11:38;;;;;;;7.60;5.70;;;;;;;13.70;64.18;101194.69;108677;1256;67303;-47
2023/05/04 04:14:05;;;;;;;7.20;5.10;;;;;;;13.78;63.83;101202.67;108635;1258;72285;-46
2023/05/04 04:16:32;;;;;;;9.70;6.10;;;;;;;13.89;63.51;101203.04;108779;1256;66300;-46
2023/05/04 04:19:00;;;;;;;9.50;5.00;;;;;;;14.01;63.18;101198.57;108788;1260;58340;-46
2023/05/04 04:21:27;;;;;;;8.10;5.50;;;;;;;14.08;62.93;101199.05;108714;1256;58586;-50
2023/05/04 04:23:54;;;;;;;10.40;5.80;;;;;;;14.12;62.72;101204.49;108582;1256;74947;-46
2023/05/04 04:26:21;;;;;;;8.60;5.80;;;;;;;14.16;62.59;101208.46;106486;1258;62800;-46
2023/05/04 04:28:51;;;;;;;9.20;5.90;;;;;;;14.21;62.52;101212.33;105029;1257;66116;-46
2023/05/04 04:31:18;;;;;;;9.90;6.00;;;;;;;14.25;62.43;101213.91;105892;1258;62952;-46
2023/05/04 04:33:47;;;;;;;9.40;6.20;;;;;;;14.28;62.34;101213.48;104941;1260;60436;-46
2023/05/04 04:36:17;;;;;;;8.80;6.00;;;;;;;14.36;62.21;101215.52;105271;1260;67016;-45
2023/05/04 04:38:44;;;;;;;8.70;5.50;;;;;;;14.47;62.06;101217.20;105501;1260;62816;-46
2023/05/04 04:41:10;;;;;;;9.20;6.80;;;;;;;14.54;61.89;101216.85;105996;1258;66405;-45
2023/05/04 04:43:37;;;;;;;8.50;6.30;;;;;;;14.57;61.78;101216.56;104613;1257;60361;-48
2023/05/04 04:46:04;;;;;;;8.80;6.40;;;;;;;14.59;61.76;101219.58;104419;1257;60848;-48
2023/05/04 04:48:31;;;;;;;9.50;6.40;;;;;;;14.60;61.59;101220.56;104557;1260;66438;-46
2023/05/04 04:50:58;;;;;;;9.80;5.90;;;;;;;14.59;61.51;101221.34;105772;1256;63089;-47
2023/05/04 04:53:25;;;;;;;9.90;5.80;;;;;;;14.63;61.37;101223.09;108747;1256;65370;-47
2023/05/04 04:55:52;;;;;;;9.90;6.10;;;;;;;14.72;61.20;101224.50;108677;1256;58323;-47
2023/05/04 04:58:19;;;;;;;9.40;6.70;;;;;;;14.80;61.13;101223.48;108733;1256;58252;-47
2023/05/04 05:00:46;;;;;;;10.70;6.40;;;;;;;14.86;60.93;101219.45;108674;1256;67298;-47
2023/05/04 05:03:13;;;;;;;9.10;7.00;;;;;;;14.89;60.59;101223.60;108765;1256;62495;-47
2023/05/04 05:05:40;;;;;;;12.60;6.70;;;;;;;14.90;60.65;101228.27;105449;1259;66177;-46
2023/05/04 05:08:07;;;;;;;8.60;6.20;;;;;;;14.93;60.60;101232.30;108360;1260;58208;-47
2023/05/04 05:10:34;;;;;;;9.50;6.00;;;;;;;14.98;60.52;101236.09;104954;1256;60552;-46
2023/05/04 05:13:01;;;;;;;8.50;5.90;;;;;;;15.09;60.28;101237.66;105461;1257;67274;-46
2023/05/04 05:15:29;;;;;;;9.60;6.60;;;;;;;15.20;60.16;101241.48;105048;1256;63378;-47
2023/05/04 05:17:56;;;;;;;8.50;6.10;;;;;;;15.28;59.90;101236.86;105706;1256;65725;-47
2023/05/04 05:20:23;;;;;;;9.60;6.50;;;;;;;15.34;59.50;101239.23;107113;1258;60420;-47
2023/05/04 05:22:50;;;;;;;11.50;6.80;;;;;;;15.37;59.23;101231.18;105628;1260;60595;-47
2023/05/04 05:25:17;;;;;;;9.70;7.20;;;;;;;15.39;59.12;101227.79;104688;1261;380214;-47
2023/05/04 05:41:11;;;;;;;9.50;6.70;;;;;;;15.98;58.02;101232.73;102571;1284;613334;-47
2023/05/04 05:43:38;;;;;;;8.10;6.30;;;;;;;16.32;57.12;101230.91;108159;1265;86175;-47
2023/05/04 05:46:05;;;;;;;8.00;6.00;;;;;;;16.36;56.65;101222.54;108290;1264;57156;-47
2023/05/04 05:48:32;;;;;;;8.80;6.20;;;;;;;16.41;56.94;101212.90;108260;1264;63348;-48
2023/05/04 05:50:59;;;;;;;8.60;6.30;;;;;;;16.49;57.01;101218.71;108323;1264;65001;-48
2023/05/04 05:53:26;;;;;;;8.20;5.90;;;;;;;16.61;56.53;101221.17;108329;1264;63862;-47
2023/05/04 05:55:52;;;;;;;10.20;6.70;;;;;;;16.69;55.74;101220.29;108280;1264;58450;-47
2023/05/04 05:58:19;;;;;;;10.60;6.80;;;;;;;16.67;55.70;101210.89;108394;1264;57698;-47
2023/05/04 06:00:46;;;;;;;8.70;5.70;;;;;;;16.66;55.85;101208.49;105935;1268;64897;-47
2023/05/04 06:03:13;;;;;;;9.30;7.00;;;;;;;16.72;55.99;101210.07;104138;1264;62896;-53
2023/05/04 06:05:40;;;;;;;10.30;6.10;;;;;;;16.77;55.73;101210.17;104116;1265;65200;-47
2023/05/04 06:08:07;;;;;;;8.10;5.90;;;;;;;16.78;55.53;101209.02;104099;1264;59685;-47
2023/05/04 06:10:34;;;;;;;8.30;6.50;;;;;;;16.79;55.38;101208.02;106162;1264;59682;-47
2023/05/04 06:13:01;;;;;;;10.00;7.30;;;;;;;16.78;55.20;101203.36;104789;1269;65278;-46
2023/05/04 06:15:28;;;;;;;9.00;6.60;;;;;;;16.72;55.44;101199.27;104746;1264;62704;-46
2023/05/04 06:17:55;;;;;;;10.10;6.90;;;;;;;16.66;55.69;101203.39;105626;1267;64720;-46
2023/05/04 06:20:22;;;;;;;12.60;6.50;;;;;;;16.64;56.03;101198.20;106719;1269;59271;-47
2023/05/04 06:22:49;;;;;;;9.40;5.90;;;;;;;16.72;56.28;101196.09;104130;1264;59634;-46
2023/05/04 06:25:16;;;;;;;8.00;5.90;;;;;;;16.83;55.94;101195.06;106912;1264;65446;-46
2023/05/04 06:27:43;;;;;;;9.70;5.70;;;;;;;16.92;55.61;101191.99;104070;1264;62794;-46
2023/05/04 06:30:10;;;;;;;11.30;7.00;;;;;;;16.98;55.52;101186.27;104271;1264;65149;-46
2023/05/04 06:32:38;;;;;;;9.30;6.80;;;;;;;17.02;55.25;101184.27;105414;1266;60807;-47
2023/05/04 06:35:07;;;;;;;9.50;6.80;;;;;;;17.07;55.25;101187.38;105508;1266;59656;-46
2023/05/04 06:37:34;;;;;;;10.80;7.30;;;;;;;17.11;54.97;101183.96;104926;1264;65371;-47
2023/05/04 06:40:01;;;;;;;8.20;6.50;;;;;;;17.07;54.51;101184.18;104869;1266;62961;-47
2023/05/04 06:42:31;;;;;;;11.30;7.10;;;;;;;17.00;54.65;101183.09;107387;1267;66950;-47
2023/05/04 06:44:57;;;;;;;12.50;6.90;;;;;;;16.95;54.65;101181.27;104103;1267;59900;-47
2023/05/04 06:47:24;;;;;;;10.50;7.70;;;;;;;16.94;54.72;101181.91;104924;1264;59957;-47
2023/05/04 06:49:51;;;;;;;10.00;7.40;;;;;;;16.93;54.67;101182.88;104220;1267;65257;-47
2023/05/04 06:52:18;;;;;;;10.80;7.30;;;;;;;16.94;54.89;101185.56;104246;1263;62893;-47
2023/05/04 06:54:45;;;;;;;11.90;7.90;;;;;;;16.98;55.11;101182.39;104300;1266;65868;-47
2023/05/04 06:57:12;;;;;;;9.00;6.40;;;;;;;17.04;54.88;101178.98;104318;1263;59538;-47
2023/05/04 06:59:39;;;;;;;10.00;7.10;;;;;;;17.11;54.83;101183.80;104151;1264;61942;-47
2023/05/04 07:02:06;;;;;;;9.40;6.90;;;;;;;17.25;54.82;101186.31;104086;1266;65193;-46
2023/05/04 07:04:33;;;;;;;10.90;7.60;;;;;;;17.40;54.20;101189.35;108520;1262;62690;-47
2023/05/04 07:07:00;;;;;;;10.10;7.10;;;;;;;17.49;53.93;101193.45;104824;1263;65090;-51
2023/05/04 07:09:27;;;;;;;11.40;6.90;;;;;;;17.57;53.85;101190.39;106336;1257;61143;-47
2023/05/04 07:11:53;;;;;;;9.50;7.40;;;;;;;17.68;53.87;101190.61;104819;1254;60021;-45
2023/05/04 07:14:20;;;;;;;11.90;7.30;;;;;;;17.80;53.71;101192.74;109031;1256;64910;-45
2023/05/04 07:16:47;;;;;;;10.90;7.50;;;;;;;17.94;53.25;101196.07;109063;1257;71361;-46
2023/05/04 07:19:14;;;;;;;10.30;8.20;;;;;;;18.06;53.05;101201.58;109063;1254;65307;-45
2023/05/04 07:21:41;;;;;;;10.50;7.30;;;;;;;18.15;52.69;101204.05;105031;1254;59660;-45
2023/05/04 07:24:08;;;;;;;12.10;7.50;;;;;;;18.23;52.40;101201.20;104753;1257;58852;-47
2023/05/04 07:26:35;;;;;;;9.40;7.20;;;;;;;18.30;52.22;101202.23;104775;1254;64376;-47
2023/05/04 07:29:02;;;;;;;8.90;6.90;;;;;;;18.40;52.03;101202.52;104868;1256;62559;-46
2023/05/04 07:31:29;;;;;;;12.30;8.10;;;;;;;18.45;51.95;101201.45;104785;1254;64008;-47
2023/05/04 07:33:57;;;;;;;10.30;7.30;;;;;;;18.48;51.71;101202.42;107198;1252;59138;-47
2023/05/04 07:36:25;;;;;;;10.70;7.60;;;;;;;18.53;51.68;101201.41;107351;1254;59656;-48
2023/05/04 07:38:52;;;;;;;10.50;8.00;;;;;;;18.54;51.55;101198.02;104897;1254;64013;-48
2023/05/04 07:41:19;;;;;;;11.20;8.50;;;;;;;18.56;51.79;101198.40;105782;1254;62392;-49
2023/05/04 07:43:46;;;;;;;10.60;8.10;;;;;;;18.57;51.81;101203.77;105013;1253;63933;-49
2023/05/04 07:46:13;;;;;;;9.60;6.80;;;;;;;18.54;51.91;101205.18;104860;1257;60556;-49
2023/05/04 07:48:40;;;;;;;12.30;8.40;;;;;;;18.53;52.13;101202.22;104739;1254;59711;-50
2023/05/04 07:51:11;;;;;;;11.40;7.90;;;;;;;18.56;51.74;101195.84;105340;1257;65392;-50
2023/05/04 07:53:38;;;;;;;11.20;8.10;;;;;;;18.56;51.76;101194.94;107094;1253;61453;-50
2023/05/04 07:56:11;;;;;;;11.80;7.70;;;;;;;18.56;51.96;101200.80;107323;1253;65093;-49
2023/05/04 07:58:38;;;;;;;10.90;7.30;;;;;;;18.61;51.92;101201.14;106275;1257;59628;-49
2023/05/04 08:01:05;;;;;;;9.70;7.80;;;;;;;18.66;51.77;101196.52;104951;1254;59768;-49
2023/05/04 08:03:32;;;;;;;9.60;7.40;;;;;;;18.68;51.31;101196.69;105465;1256;65460;-49
2023/05/04 08:05:59;;;;;;;11.60;8.30;;;;;;;18.70;51.41;101194.87;105520;1256;61590;-50
2023/05/04 08:08:26;;;;;;;9.80;7.30;;;;;;;18.72;51.15;101193.39;104833;1257;63859;-48
2023/05/04 08:10:53;;;;;;;9.60;7.30;;;;;;;18.76;51.21;101194.77;104900;1254;59632;-48
2023/05/04 08:13:26;;;;;;;10.20;7.90;;;;;;;18.83;51.37;101190.73;106470;1252;59675;-49
2023/05/04 08:15:53;;;;;;;15.50;8.40;;;;;;;18.90;50.83;101190.20;104887;1253;65550;-48
2023/05/04 08:18:20;;;;;;;10.40;7.10;;;;;;;18.92;50.65;101183.94;107452;1253;62384;-50
2023/05/04 08:20:47;;;;;;;12.20;7.10;;;;;;;18.91;50.38;101181.87;105800;1257;64995;-49
2023/05/04 08:23:14;;;;;;;13.00;8.50;;;;;;;18.90;50.27;101182.33;105041;1254;59748;-49
2023/05/04 08:25:41;;;;;;;11.10;7.60;;;;;;;18.91;50.10;101181.89;107507;1254;59819;-50
2023/05/04 08:28:07;;;;;;;12.40;8.20;;;;;;;18.95;50.04;101181.72;104832;1254;65846;-50
2023/05/04 08:30:34;;;;;;;10.00;7.20;;;;;;;19.00;50.03;101180.61;104886;1254;62520;-48
2023/05/04 08:33:01;;;;;;;10.00;7.50;;;;;;;19.07;49.69;101181.13;106224;1254;65350;-49
2023/05/04 08:35:28;;;;;;;9.50;7.50;;;;;;;19.13;49.46;101181.24;104740;1254;59810;-50
2023/05/04 08:37:55;;;;;;;13.10;7.20;;;;;;;19.15;49.39;101177.35;104848;1254;59580;-49
2023/05/04 08:40:22;;;;;;;8.60;6.80;;;;;;;19.16;49.34;101171.34;105688;1254;65355;-49
2023/05/04 08:42:51;;;;;;;9.90;7.00;;;;;;;19.15;49.06;101170.35;106528;1254;62537;-47
2023/05/04 08:45:18;;;;;;;9.60;6.60;;;;;;;19.16;48.86;101169.05;104840;1253;65007;-49
2023/05/04 08:47:45;;;;;;;8.30;6.50;;;;;;;19.16;48.26;101165.29;104812;1257;61267;-45
2023/05/04 08:50:12;;;;;;;10.90;7.10;;;;;;;19.17;47.86;101165.86;108501;1253;58451;-46
2023/05/04 08:52:45;;;;;;;10.00;6.50;;;;;;;19.25;48.35;101163.42;109092;1253;64166;-46
2023/05/04 08:55:11;;;;;;;9.00;6.60;;;;;;;19.39;48.63;101167.11;106146;1257;70464;-46
2023/05/04 08:57:40;;;;;;;10.20;7.10;;;;;;;19.52;48.40;101167.17;105271;1257;64250;-46
2023/05/04 09:00:07;;;;;;;11.40;6.70;;;;;;;19.65;47.79;101166.38;105222;1259;59765;-46
2023/05/04 09:02:35;;;;;;;8.90;6.20;;;;;;;19.73;47.59;101166.04;109073;1253;58420;-47
2023/05/04 09:05:01;;;;;;;9.10;6.40;;;;;;;19.77;47.52;101166.04;106457;1259;65193;-46
2023/05/04 09:07:28;;;;;;;10.30;7.40;;;;;;;19.82;47.11;101167.25;105029;1257;71706;-48
2023/05/04 09:09:55;;;;;;;8.90;6.70;;;;;;;19.87;47.15;101167.30;104918;1256;64746;-48
2023/05/04 09:12:23;;;;;;;10.40;6.80;;;;;;;19.91;46.95;101168.86;107231;1254;59778;-50
2023/05/04 09:14:50;;;;;;;9.30;6.90;;;;;;;19.96;46.89;101166.34;109106;1253;59343;-49
2023/05/04 09:17:24;;;;;;;10.40;6.40;;;;;;;20.05;46.98;101161.56;108986;1254;65173;-49
2023/05/04 09:19:58;;;;;;;8.00;6.30;;;;;;;20.10;46.62;101159.80;106630;1257;64306;-49
2023/05/04 09:22:31;;;;;;;10.30;6.80;;;;;;;20.13;46.59;101160.30;109076;1254;64722;-50
2023/05/04 09:25:11;;;;;;;8.90;6.70;;;;;;;20.20;46.45;101160.14;109087;1253;58003;-49
2023/05/04 09:27:40;;;;;;;8.50;6.80;;;;;;;20.26;46.41;101160.58;107156;1254;59660;-49
2023/05/04 09:30:07;;;;;;;9.20;6.60;;;;;;;20.35;46.52;101155.53;109049;1253;64190;-49
2023/05/04 09:32:45;;;;;;;10.40;6.80;;;;;;;20.45;46.21;101155.81;106931;1253;62450;-49
2023/05/04 09:35:12;;;;;;;8.50;6.40;;;;;;;20.54;46.08;101154.84;105149;1254;64876;-48
2023/05/04 09:37:58;;;;;;;8.10;6.30;;;;;;;20.65;46.32;101153.44;104793;1254;61106;-49
2023/05/04 09:40:33;;;;;;;10.90;7.00;;;;;;;20.79;46.24;101154.04;104787;1254;59826;-47
2023/05/04 09:43:00;;;;;;;11.40;5.90;;;;;;;20.95;45.69;101149.83;109076;1254;65567;-48
2023/05/04 09:45:46;;;;;;;9.00;6.60;;;;;;;21.10;45.31;101148.23;105915;1254;62666;-47
2023/05/04 09:48:18;;;;;;;8.70;6.20;;;;;;;21.24;45.26;101142.11;104872;1254;65068;-48
2023/05/04 09:50:50;;;;;;;8.50;5.80;;;;;;;21.42;44.66;101140.41;104895;1254;60544;-48
2023/05/04 09:53:19;;;;;;;9.70;5.50;;;;;;;21.57;43.97;101136.05;105842;1254;60473;-48
2023/05/04 09:55:46;;;;;;;10.30;6.50;;;;;;;21.64;43.59;101132.89;104895;1259;65809;-49
2023/05/04 09:58:15;;;;;;;10.80;5.90;;;;;;;21.68;43.45;101134.36;104849;1253;61696;-47
2023/05/04 10:00:42;;;;;;;8.60;6.30;;;;;;;21.74;43.15;101131.42;109086;1254;64063;-50
2023/05/04 10:03:09;;;;;;;10.60;5.80;;;;;;;21.80;42.89;101127.52;105118;1254;61429;-51
2023/05/04 10:05:37;;;;;;;7.60;6.00;;;;;;;21.86;42.75;101128.25;104729;1259;60434;-48
2023/05/04 10:08:04;;;;;;;8.90;5.90;;;;;;;21.91;42.30;101122.70;107148;1254;65148;-47
2023/05/04 10:10:32;;;;;;;8.70;5.90;;;;;;;21.95;42.50;101118.98;107251;1254;63219;-48
2023/05/04 10:12:59;;;;;;;10.10;6.20;;;;;;;22.01;42.29;101119.28;104746;1255;65170;-49
2023/05/04 10:15:26;;;;;;;10.20;6.50;;;;;;;22.11;42.07;101117.09;105483;1254;60676;-49
2023/05/04 10:18:15;;;;;;;11.30;5.80;;;;;;;22.24;41.73;101116.61;104778;1254;60337;-47
2023/05/04 10:21:01;;;;;;;8.40;5.50;;;;;;;22.43;41.42;101116.39;104827;1257;66273;-45
2023/05/04 10:23:28;;;;;;;;;;;;;;;22.59;40.97;101110.52;106113;1253;62475;-46
2023/05/04 10:26:19;;;;;;;8.80;5.10;;;;;;;22.73;40.64;101108.65;104728;1254;64034;-45
2023/05/04 10:29:04;;;;;;;8.90;6.00;;;;;;;22.82;40.22;101104.73;104559;1254;60454;-46
2023/05/04 10:31:41;;;;;;;8.20;5.50;;;;;;;22.80;39.84;101102.98;108883;1253;58460;-46
2023/05/04 10:34:08;;;;;;;8.30;5.60;;;;;;;22.74;39.89;101101.04;106792;1253;66037;-46
2023/05/04 10:36:36;;;;;;;8.40;5.90;;;;;;;22.64;39.69;101098.26;105178;1252;62624;-46
2023/05/04 10:39:25;;;;;;;8.90;5.70;;;;;;;22.57;39.56;101096.16;104830;1254;64871;-46
2023/05/04 10:42:02;;;;;;;9.80;5.90;;;;;;;22.51;40.22;101095.92;105682;1257;61686;-46
2023/05/04 10:44:34;;;;;;;8.60;5.90;;;;;;;22.55;40.51;101098.00;104778;1259;60557;-46
2023/05/04 10:47:02;;;;;;;11.30;5.50;;;;;;;22.61;40.01;101096.32;107178;1253;66277;-47
2023/05/04 10:49:31;;;;;;;7.90;5.70;;;;;;;22.72;39.77;101096.45;105526;1253;63023;-46
2023/05/04 10:52:07;;;;;;;8.60;4.80;;;;;;;22.82;39.33;101093.13;109081;1253;63878;-46
2023/05/04 10:54:35;;;;;;;9.90;5.50;;;;;;;22.90;38.78;101088.86;109069;1253;58453;-55
2023/05/04 10:57:03;;;;;;;8.50;5.80;;;;;;;22.98;38.57;101086.13;105460;1254;60978;-55
2023/05/04 10:59:31;;;;;;;9.60;5.90;;;;;;;23.06;38.65;101087.67;104756;1254;66518;-54
2023/05/04 11:02:01;;;;;;;8.60;5.70;;;;;;;23.10;38.68;101083.06;104795;1257;62705;-54
2023/05/04 11:04:28;;;;;;;8.20;6.20;;;;;;;23.08;38.17;101076.73;106343;1257;64071;-54
2023/05/04 11:06:57;;;;;;;9.20;5.20;;;;;;;23.02;38.00;101073.73;106439;1254;60312;-54
2023/05/04 11:09:25;;;;;;;11.10;5.50;;;;;;;22.95;37.72;101071.46;105628;1257;60332;-54
2023/05/04 11:11:56;;;;;;;8.80;6.10;;;;;;;23.00;38.11;101065.36;107363;1257;65997;-54
2023/05/04 11:14:25;;;;;;;7.60;4.60;;;;;;;23.11;37.35;101063.09;104844;1254;62930;-54
2023/05/04 11:17:13;;;;;;;7.30;4.80;;;;;;;23.17;36.85;101062.14;105655;1256;64845;-54
2023/05/04 11:19:50;;;;;;;8.20;4.80;;;;;;;23.22;37.21;101059.41;104882;1254;60482;-54
2023/05/04 11:22:17;;;;;;;7.60;4.50;;;;;;;23.31;37.11;101050.34;107505;1253;60441;-55
2023/05/04 11:24:45;;;;;;;6.90;4.40;;;;;;;23.33;36.78;101044.86;106700;1257;66130;-53
2023/05/04 11:27:24;;;;;;;6.50;3.90;;;;;;;23.38;36.48;101041.13;104926;1257;61296;-53
2023/05/04 11:29:59;;;;;;;10.80;4.40;;;;;;;23.47;36.20;101036.45;104897;1256;65092;-54
2023/05/04 11:32:41;;;;;;;7.90;3.90;;;;;;;23.57;35.45;101033.86;106447;1253;60574;-54
2023/05/04 11:35:18;;;;;;;8.90;4.30;;;;;;;23.69;35.53;101028.58;105175;1256;61114;-54